sensor_id;sensor_type;location;lat;lon;timestamp;temperature;humidity
22925;DHT22;11628;51.072;3.712;2023-04-06T00:01:49;11.70;74.80
22925;DHT22;11628;51.072;3.712;2023-04-06T00:04:15;11.60;75.60
22925;DHT22;11628;51.072;3.712;2023-04-06T00:06:41;11.70;76.00
22925;DHT22;11628;51.072;3.712;2023-04-06T00:09:08;11.60;76.40
22925;DHT22;11628;51.072;3.712;2023-04-06T00:11:34;11.60;76.60
22925;DHT22;11628;51.072;3.712;2023-04-06T00:13:59;11.50;77.20
22925;DHT22;11628;51.072;3.712;2023-04-06T00:16:25;11.50;77.60
22925;DHT22;11628;51.072;3.712;2023-04-06T00:18:51;11.40;78.00
22925;DHT22;11628;51.072;3.712;2023-04-06T00:21:17;11.40;78.30
22925;DHT22;11628;51.072;3.712;2023-04-06T00:23:43;11.40;78.90
22925;DHT22;11628;51.072;3.712;2023-04-06T00:26:09;11.40;79.00
22925;DHT22;11628;51.072;3.712;2023-04-06T00:28:37;11.40;79.10
22925;DHT22;11628;51.072;3.712;2023-04-06T00:31:03;11.40;79.50
22925;DHT22;11628;51.072;3.712;2023-04-06T00:33:29;11.40;79.80
22925;DHT22;11628;51.072;3.712;2023-04-06T00:35:54;11.40;80.10
22925;DHT22;11628;51.072;3.712;2023-04-06T00:38:21;11.40;80.60
22925;DHT22;11628;51.072;3.712;2023-04-06T00:40:47;11.40;81.30
22925;DHT22;11628;51.072;3.712;2023-04-06T00:43:13;11.40;81.20
22925;DHT22;11628;51.072;3.712;2023-04-06T00:45:40;11.40;81.20
22925;DHT22;11628;51.072;3.712;2023-04-06T00:48:07;11.40;81.10
22925;DHT22;11628;51.072;3.712;2023-04-06T00:50:33;11.30;81.90
22925;DHT22;11628;51.072;3.712;2023-04-06T00:53:00;11.10;82.20
22925;DHT22;11628;51.072;3.712;2023-04-06T00:55:29;11.10;82.90
22925;DHT22;11628;51.072;3.712;2023-04-06T00:57:57;11.10;82.80
22925;DHT22;11628;51.072;3.712;2023-04-06T01:00:24;11.00;83.60
22925;DHT22;11628;51.072;3.712;2023-04-06T01:02:50;11.00;84.00
22925;DHT22;11628;51.072;3.712;2023-04-06T01:05:16;11.00;84.70
22925;DHT22;11628;51.072;3.712;2023-04-06T01:07:41;10.90;85.30
22925;DHT22;11628;51.072;3.712;2023-04-06T01:10:07;10.90;85.70
22925;DHT22;11628;51.072;3.712;2023-04-06T01:12:33;10.90;86.10
22925;DHT22;11628;51.072;3.712;2023-04-06T01:14:59;10.90;87.10
22925;DHT22;11628;51.072;3.712;2023-04-06T01:17:25;10.90;87.40
22925;DHT22;11628;51.072;3.712;2023-04-06T01:19:51;10.90;88.10
22925;DHT22;11628;51.072;3.712;2023-04-06T01:22:19;10.90;89.10
22925;DHT22;11628;51.072;3.712;2023-04-06T01:24:45;10.90;89.50
22925;DHT22;11628;51.072;3.712;2023-04-06T01:27:12;10.80;90.00
22925;DHT22;11628;51.072;3.712;2023-04-06T01:29:38;10.90;90.10
22925;DHT22;11628;51.072;3.712;2023-04-06T01:32:07;10.90;90.20
22925;DHT22;11628;51.072;3.712;2023-04-06T01:34:33;10.90;90.50
22925;DHT22;11628;51.072;3.712;2023-04-06T01:36:58;10.90;90.80
22925;DHT22;11628;51.072;3.712;2023-04-06T01:39:24;10.90;90.90
22925;DHT22;11628;51.072;3.712;2023-04-06T01:41:50;10.90;91.10
22925;DHT22;11628;51.072;3.712;2023-04-06T01:44:17;10.90;91.20
22925;DHT22;11628;51.072;3.712;2023-04-06T01:46:44;10.80;91.40
22925;DHT22;11628;51.072;3.712;2023-04-06T01:49:11;10.80;91.70
22925;DHT22;11628;51.072;3.712;2023-04-06T01:51:37;10.70;92.00
22925;DHT22;11628;51.072;3.712;2023-04-06T01:54:03;10.70;92.40
22925;DHT22;11628;51.072;3.712;2023-04-06T01:56:29;10.70;92.80
22925;DHT22;11628;51.072;3.712;2023-04-06T01:58:55;10.60;93.00
22925;DHT22;11628;51.072;3.712;2023-04-06T02:01:21;10.60;93.10
22925;DHT22;11628;51.072;3.712;2023-04-06T02:03:47;10.60;93.30
22925;DHT22;11628;51.072;3.712;2023-04-06T02:06:13;10.70;93.30
22925;DHT22;11628;51.072;3.712;2023-04-06T02:08:38;10.80;93.30
22925;DHT22;11628;51.072;3.712;2023-04-06T02:11:04;10.90;93.20
22925;DHT22;11628;51.072;3.712;2023-04-06T02:13:30;11.10;93.40
22925;DHT22;11628;51.072;3.712;2023-04-06T02:15:56;11.00;93.30
22925;DHT22;11628;51.072;3.712;2023-04-06T02:18:22;11.10;93.40
22925;DHT22;11628;51.072;3.712;2023-04-06T02:20:48;11.10;93.40
22925;DHT22;11628;51.072;3.712;2023-04-06T02:23:14;11.20;93.60
22925;DHT22;11628;51.072;3.712;2023-04-06T02:25:40;11.20;93.60
22925;DHT22;11628;51.072;3.712;2023-04-06T02:28:06;11.30;93.80
22925;DHT22;11628;51.072;3.712;2023-04-06T02:30:32;11.20;94.00
22925;DHT22;11628;51.072;3.712;2023-04-06T02:32:59;11.10;94.40
22925;DHT22;11628;51.072;3.712;2023-04-06T02:35:25;11.00;94.80
22925;DHT22;11628;51.072;3.712;2023-04-06T02:37:51;10.90;94.90
22925;DHT22;11628;51.072;3.712;2023-04-06T02:40:17;11.00;95.40
22925;DHT22;11628;51.072;3.712;2023-04-06T02:42:42;10.90;95.80
22925;DHT22;11628;51.072;3.712;2023-04-06T02:45:08;10.80;96.30
22925;DHT22;11628;51.072;3.712;2023-04-06T02:47:34;10.70;96.80
22925;DHT22;11628;51.072;3.712;2023-04-06T02:49:59;10.60;97.40
22925;DHT22;11628;51.072;3.712;2023-04-06T02:52:26;10.60;97.90
22925;DHT22;11628;51.072;3.712;2023-04-06T02:54:51;10.50;98.50
22925;DHT22;11628;51.072;3.712;2023-04-06T02:57:17;10.50;99.10
22925;DHT22;11628;51.072;3.712;2023-04-06T02:59:43;10.40;99.90
22925;DHT22;11628;51.072;3.712;2023-04-06T03:02:09;10.40;99.90
22925;DHT22;11628;51.072;3.712;2023-04-06T03:04:35;10.30;99.90
22925;DHT22;11628;51.072;3.712;2023-04-06T03:07:01;10.30;99.90
22925;DHT22;11628;51.072;3.712;2023-04-06T03:09:27;10.20;99.90
22925;DHT22;11628;51.072;3.712;2023-04-06T03:11:53;10.20;99.90
22925;DHT22;11628;51.072;3.712;2023-04-06T03:14:19;10.20;99.90
22925;DHT22;11628;51.072;3.712;2023-04-06T03:16:48;10.20;99.90
22925;DHT22;11628;51.072;3.712;2023-04-06T03:19:14;10.10;99.90
22925;DHT22;11628;51.072;3.712;2023-04-06T03:21:40;10.20;99.90
22925;DHT22;11628;51.072;3.712;2023-04-06T03:24:06;10.10;99.90
22925;DHT22;11628;51.072;3.712;2023-04-06T03:26:34;10.10;99.90
22925;DHT22;11628;51.072;3.712;2023-04-06T03:29:00;10.10;99.90
22925;DHT22;11628;51.072;3.712;2023-04-06T03:31:26;10.00;99.90
22925;DHT22;11628;51.072;3.712;2023-04-06T03:33:52;10.00;99.90
22925;DHT22;11628;51.072;3.712;2023-04-06T03:36:17;10.10;99.90
22925;DHT22;11628;51.072;3.712;2023-04-06T03:38:43;10.10;99.90
22925;DHT22;11628;51.072;3.712;2023-04-06T03:41:09;10.00;99.90
22925;DHT22;11628;51.072;3.712;2023-04-06T03:43:35;10.00;99.90
22925;DHT22;11628;51.072;3.712;2023-04-06T03:46:01;9.90;99.90
22925;DHT22;11628;51.072;3.712;2023-04-06T03:48:26;9.90;99.90
22925;DHT22;11628;51.072;3.712;2023-04-06T03:50:52;9.90;99.90
22925;DHT22;11628;51.072;3.712;2023-04-06T03:53:18;9.90;99.90
22925;DHT22;11628;51.072;3.712;2023-04-06T03:55:44;9.80;99.90
22925;DHT22;11628;51.072;3.712;2023-04-06T03:58:10;9.80;99.90
22925;DHT22;11628;51.072;3.712;2023-04-06T04:00:35;9.70;99.90
22925;DHT22;11628;51.072;3.712;2023-04-06T04:03:01;9.70;99.90
22925;DHT22;11628;51.072;3.712;2023-04-06T04:05:28;9.70;99.90
22925;DHT22;11628;51.072;3.712;2023-04-06T04:07:53;9.80;99.90
22925;DHT22;11628;51.072;3.712;2023-04-06T04:10:19;9.70;99.90
22925;DHT22;11628;51.072;3.712;2023-04-06T04:12:45;9.70;99.90
22925;DHT22;11628;51.072;3.712;2023-04-06T04:15:11;9.70;99.90
22925;DHT22;11628;51.072;3.712;2023-04-06T04:17:36;9.70;99.90
22925;DHT22;11628;51.072;3.712;2023-04-06T04:20:02;9.60;99.90
22925;DHT22;11628;51.072;3.712;2023-04-06T04:22:28;9.60;99.90
22925;DHT22;11628;51.072;3.712;2023-04-06T04:24:54;9.60;99.90
22925;DHT22;11628;51.072;3.712;2023-04-06T04:27:20;9.60;99.90
22925;DHT22;11628;51.072;3.712;2023-04-06T04:29:46;9.60;99.90
22925;DHT22;11628;51.072;3.712;2023-04-06T04:32:12;9.60;99.90
22925;DHT22;11628;51.072;3.712;2023-04-06T04:34:37;9.60;99.90
22925;DHT22;11628;51.072;3.712;2023-04-06T04:37:06;9.60;99.90
22925;DHT22;11628;51.072;3.712;2023-04-06T04:39:32;9.60;99.90
22925;DHT22;11628;51.072;3.712;2023-04-06T04:41:57;9.60;99.90
22925;DHT22;11628;51.072;3.712;2023-04-06T04:44:23;9.60;99.90
22925;DHT22;11628;51.072;3.712;2023-04-06T04:46:49;9.60;99.90
22925;DHT22;11628;51.072;3.712;2023-04-06T04:49:14;9.60;99.90
22925;DHT22;11628;51.072;3.712;2023-04-06T04:51:40;9.60;99.90
22925;DHT22;11628;51.072;3.712;2023-04-06T04:54:06;9.60;99.90
22925;DHT22;11628;51.072;3.712;2023-04-06T04:56:32;9.60;99.90
22925;DHT22;11628;51.072;3.712;2023-04-06T04:58:58;9.60;99.90
22925;DHT22;11628;51.072;3.712;2023-04-06T05:01:23;9.50;99.90
22925;DHT22;11628;51.072;3.712;2023-04-06T05:03:49;9.50;99.90
22925;DHT22;11628;51.072;3.712;2023-04-06T05:06:15;9.60;99.90
22925;DHT22;11628;51.072;3.712;2023-04-06T05:08:41;9.50;99.90
22925;DHT22;11628;51.072;3.712;2023-04-06T05:11:08;9.40;99.90
22925;DHT22;11628;51.072;3.712;2023-04-06T05:13:34;9.40;99.90
22925;DHT22;11628;51.072;3.712;2023-04-06T05:16:00;9.40;99.90
22925;DHT22;11628;51.072;3.712;2023-04-06T05:18:26;9.30;99.90
22925;DHT22;11628;51.072;3.712;2023-04-06T05:20:51;9.30;99.90
22925;DHT22;11628;51.072;3.712;2023-04-06T05:23:17;9.20;99.90
22925;DHT22;11628;51.072;3.712;2023-04-06T05:25:43;9.20;99.90
22925;DHT22;11628;51.072;3.712;2023-04-06T05:28:09;9.10;99.90
22925;DHT22;11628;51.072;3.712;2023-04-06T05:30:35;9.10;99.90
22925;DHT22;11628;51.072;3.712;2023-04-06T05:33:01;9.10;99.90
22925;DHT22;11628;51.072;3.712;2023-04-06T05:35:27;9.10;99.90
22925;DHT22;11628;51.072;3.712;2023-04-06T05:37:53;9.10;99.90
22925;DHT22;11628;51.072;3.712;2023-04-06T05:40:18;9.20;99.90
22925;DHT22;11628;51.072;3.712;2023-04-06T05:42:44;9.10;99.90
22925;DHT22;11628;51.072;3.712;2023-04-06T05:45:11;9.10;99.90
22925;DHT22;11628;51.072;3.712;2023-04-06T05:47:43;9.00;99.90
22925;DHT22;11628;51.072;3.712;2023-04-06T05:50:10;8.90;99.90
22925;DHT22;11628;51.072;3.712;2023-04-06T05:52:36;8.90;99.90
22925;DHT22;11628;51.072;3.712;2023-04-06T05:55:02;8.90;99.90
22925;DHT22;11628;51.072;3.712;2023-04-06T05:57:28;8.90;99.90
22925;DHT22;11628;51.072;3.712;2023-04-06T05:59:54;8.90;99.90
22925;DHT22;11628;51.072;3.712;2023-04-06T06:02:21;8.80;99.90
22925;DHT22;11628;51.072;3.712;2023-04-06T06:04:47;8.90;99.90
22925;DHT22;11628;51.072;3.712;2023-04-06T06:07:13;8.80;99.90
22925;DHT22;11628;51.072;3.712;2023-04-06T06:09:39;8.80;99.90
22925;DHT22;11628;51.072;3.712;2023-04-06T06:12:05;8.80;99.90
22925;DHT22;11628;51.072;3.712;2023-04-06T06:14:31;8.70;99.90
22925;DHT22;11628;51.072;3.712;2023-04-06T06:16:56;8.70;99.90
22925;DHT22;11628;51.072;3.712;2023-04-06T06:19:22;8.60;99.90
22925;DHT22;11628;51.072;3.712;2023-04-06T06:21:48;8.60;99.90
22925;DHT22;11628;51.072;3.712;2023-04-06T06:24:14;8.60;99.90
22925;DHT22;11628;51.072;3.712;2023-04-06T06:26:39;8.60;99.90
22925;DHT22;11628;51.072;3.712;2023-04-06T06:29:06;8.50;99.90
22925;DHT22;11628;51.072;3.712;2023-04-06T06:31:32;8.40;99.90
22925;DHT22;11628;51.072;3.712;2023-04-06T06:33:58;8.40;99.90
22925;DHT22;11628;51.072;3.712;2023-04-06T06:36:25;8.40;99.90
22925;DHT22;11628;51.072;3.712;2023-04-06T06:38:51;8.40;99.90
22925;DHT22;11628;51.072;3.712;2023-04-06T06:41:17;8.40;99.90
22925;DHT22;11628;51.072;3.712;2023-04-06T06:43:43;8.40;99.90
22925;DHT22;11628;51.072;3.712;2023-04-06T06:46:08;8.50;99.90
22925;DHT22;11628;51.072;3.712;2023-04-06T06:48:34;8.50;99.90
22925;DHT22;11628;51.072;3.712;2023-04-06T06:51:00;8.50;99.90
22925;DHT22;11628;51.072;3.712;2023-04-06T06:53:26;8.50;99.90
22925;DHT22;11628;51.072;3.712;2023-04-06T06:55:51;8.60;99.90
22925;DHT22;11628;51.072;3.712;2023-04-06T06:58:20;8.60;99.90
22925;DHT22;11628;51.072;3.712;2023-04-06T07:00:46;8.60;99.90
22925;DHT22;11628;51.072;3.712;2023-04-06T07:03:12;8.60;99.90
22925;DHT22;11628;51.072;3.712;2023-04-06T07:05:38;8.70;99.90
22925;DHT22;11628;51.072;3.712;2023-04-06T07:08:04;8.80;99.90
22925;DHT22;11628;51.072;3.712;2023-04-06T07:10:29;8.70;99.90
22925;DHT22;11628;51.072;3.712;2023-04-06T07:12:56;8.70;99.90
22925;DHT22;11628;51.072;3.712;2023-04-06T07:15:22;8.70;99.90
22925;DHT22;11628;51.072;3.712;2023-04-06T07:17:49;8.70;99.90
22925;DHT22;11628;51.072;3.712;2023-04-06T07:20:14;8.70;99.90
22925;DHT22;11628;51.072;3.712;2023-04-06T07:22:43;8.70;99.90
22925;DHT22;11628;51.072;3.712;2023-04-06T07:25:10;8.60;99.90
22925;DHT22;11628;51.072;3.712;2023-04-06T07:27:35;8.70;99.90
22925;DHT22;11628;51.072;3.712;2023-04-06T07:30:01;8.70;99.90
22925;DHT22;11628;51.072;3.712;2023-04-06T07:32:27;8.60;99.90
22925;DHT22;11628;51.072;3.712;2023-04-06T07:34:53;8.60;99.90
22925;DHT22;11628;51.072;3.712;2023-04-06T07:37:19;8.60;99.90
22925;DHT22;11628;51.072;3.712;2023-04-06T07:39:44;8.50;99.90
22925;DHT22;11628;51.072;3.712;2023-04-06T07:42:10;8.40;99.90
22925;DHT22;11628;51.072;3.712;2023-04-06T07:44:36;8.40;99.90
22925;DHT22;11628;51.072;3.712;2023-04-06T07:47:02;8.40;99.90
22925;DHT22;11628;51.072;3.712;2023-04-06T07:49:27;8.40;99.90
22925;DHT22;11628;51.072;3.712;2023-04-06T07:51:53;8.50;99.90
22925;DHT22;11628;51.072;3.712;2023-04-06T07:54:19;8.40;99.90
22925;DHT22;11628;51.072;3.712;2023-04-06T07:56:45;8.30;99.90
22925;DHT22;11628;51.072;3.712;2023-04-06T07:59:11;8.30;99.90
22925;DHT22;11628;51.072;3.712;2023-04-06T08:01:37;8.30;99.90
22925;DHT22;11628;51.072;3.712;2023-04-06T08:04:03;8.40;99.90
22925;DHT22;11628;51.072;3.712;2023-04-06T08:06:29;8.40;99.90
22925;DHT22;11628;51.072;3.712;2023-04-06T08:08:55;8.40;99.90
22925;DHT22;11628;51.072;3.712;2023-04-06T08:11:20;8.40;99.90
22925;DHT22;11628;51.072;3.712;2023-04-06T08:13:46;8.40;99.90
22925;DHT22;11628;51.072;3.712;2023-04-06T08:16:12;8.50;99.90
22925;DHT22;11628;51.072;3.712;2023-04-06T08:18:38;8.50;99.90
22925;DHT22;11628;51.072;3.712;2023-04-06T08:21:05;8.50;99.90
22925;DHT22;11628;51.072;3.712;2023-04-06T08:23:31;8.40;99.90
22925;DHT22;11628;51.072;3.712;2023-04-06T08:25:57;8.40;99.90
22925;DHT22;11628;51.072;3.712;2023-04-06T08:28:22;8.40;99.90
22925;DHT22;11628;51.072;3.712;2023-04-06T08:30:49;8.30;99.90
22925;DHT22;11628;51.072;3.712;2023-04-06T08:33:14;8.30;99.90
22925;DHT22;11628;51.072;3.712;2023-04-06T08:35:40;8.40;99.90
22925;DHT22;11628;51.072;3.712;2023-04-06T08:38:06;8.50;99.90
22925;DHT22;11628;51.072;3.712;2023-04-06T08:40:40;8.50;99.90
22925;DHT22;11628;51.072;3.712;2023-04-06T08:43:13;8.40;99.90
22925;DHT22;11628;51.072;3.712;2023-04-06T08:45:41;8.30;99.90
22925;DHT22;11628;51.072;3.712;2023-04-06T08:48:07;8.30;99.90
22925;DHT22;11628;51.072;3.712;2023-04-06T08:50:34;8.20;99.90
22925;DHT22;11628;51.072;3.712;2023-04-06T08:53:01;8.20;99.90
22925;DHT22;11628;51.072;3.712;2023-04-06T08:55:27;8.30;99.90
22925;DHT22;11628;51.072;3.712;2023-04-06T08:57:53;8.30;99.90
22925;DHT22;11628;51.072;3.712;2023-04-06T09:00:21;8.30;99.90
22925;DHT22;11628;51.072;3.712;2023-04-06T09:02:49;8.30;99.90
22925;DHT22;11628;51.072;3.712;2023-04-06T09:05:15;8.40;99.90
22925;DHT22;11628;51.072;3.712;2023-04-06T09:07:41;8.40;99.90
22925;DHT22;11628;51.072;3.712;2023-04-06T09:10:08;8.50;99.90
22925;DHT22;11628;51.072;3.712;2023-04-06T09:12:34;8.50;99.90
22925;DHT22;11628;51.072;3.712;2023-04-06T09:15:01;8.60;99.90
22925;DHT22;11628;51.072;3.712;2023-04-06T09:17:32;8.70;99.90
22925;DHT22;11628;51.072;3.712;2023-04-06T09:20:00;8.70;99.90
22925;DHT22;11628;51.072;3.712;2023-04-06T09:22:38;8.70;99.90
22925;DHT22;11628;51.072;3.712;2023-04-06T09:25:04;8.60;99.90
22925;DHT22;11628;51.072;3.712;2023-04-06T09:27:37;8.60;99.90
22925;DHT22;11628;51.072;3.712;2023-04-06T09:30:05;8.60;99.90
22925;DHT22;11628;51.072;3.712;2023-04-06T09:32:31;8.60;99.90
22925;DHT22;11628;51.072;3.712;2023-04-06T09:35:08;8.50;99.90
22925;DHT22;11628;51.072;3.712;2023-04-06T09:37:35;8.40;99.90
22925;DHT22;11628;51.072;3.712;2023-04-06T09:40:05;8.40;99.90
22925;DHT22;11628;51.072;3.712;2023-04-06T09:42:31;8.60;99.90
22925;DHT22;11628;51.072;3.712;2023-04-06T09:44:57;8.60;99.90
22925;DHT22;11628;51.072;3.712;2023-04-06T09:47:24;8.60;99.90
22925;DHT22;11628;51.072;3.712;2023-04-06T09:49:57;8.50;99.90
22925;DHT22;11628;51.072;3.712;2023-04-06T09:52:30;8.40;99.90
22925;DHT22;11628;51.072;3.712;2023-04-06T09:55:01;8.40;99.90
22925;DHT22;11628;51.072;3.712;2023-04-06T09:58:12;8.50;99.90
22925;DHT22;11628;51.072;3.712;2023-04-06T10:00:57;8.50;99.90
22925;DHT22;11628;51.072;3.712;2023-04-06T10:06:04;8.70;99.90
22925;DHT22;11628;51.072;3.712;2023-04-06T10:08:34;8.70;99.90
22925;DHT22;11628;51.072;3.712;2023-04-06T10:11:01;8.60;99.90
22925;DHT22;11628;51.072;3.712;2023-04-06T10:13:27;8.60;99.90
22925;DHT22;11628;51.072;3.712;2023-04-06T10:15:55;8.60;99.90
22925;DHT22;11628;51.072;3.712;2023-04-06T10:18:21;8.60;99.90
22925;DHT22;11628;51.072;3.712;2023-04-06T10:20:55;8.60;99.90
22925;DHT22;11628;51.072;3.712;2023-04-06T10:23:26;8.60;99.90
22925;DHT22;11628;51.072;3.712;2023-04-06T10:25:57;8.60;99.90
22925;DHT22;11628;51.072;3.712;2023-04-06T10:28:23;8.60;99.90
22925;DHT22;11628;51.072;3.712;2023-04-06T10:30:49;8.60;99.90
22925;DHT22;11628;51.072;3.712;2023-04-06T10:33:21;8.60;99.90
22925;DHT22;11628;51.072;3.712;2023-04-06T10:35:47;8.60;99.90
22925;DHT22;11628;51.072;3.712;2023-04-06T10:38:13;8.60;99.90
22925;DHT22;11628;51.072;3.712;2023-04-06T10:40:42;8.60;99.90
22925;DHT22;11628;51.072;3.712;2023-04-06T10:43:13;8.70;99.90
22925;DHT22;11628;51.072;3.712;2023-04-06T10:45:40;8.70;99.90
22925;DHT22;11628;51.072;3.712;2023-04-06T10:48:39;8.70;99.90
22925;DHT22;11628;51.072;3.712;2023-04-06T10:51:11;8.80;99.90
22925;DHT22;11628;51.072;3.712;2023-04-06T10:53:45;8.80;99.90
22925;DHT22;11628;51.072;3.712;2023-04-06T10:56:13;8.80;99.90
22925;DHT22;11628;51.072;3.712;2023-04-06T10:58:47;8.90;99.90
22925;DHT22;11628;51.072;3.712;2023-04-06T11:01:16;8.90;99.90
22925;DHT22;11628;51.072;3.712;2023-04-06T11:03:55;8.80;99.90
22925;DHT22;11628;51.072;3.712;2023-04-06T11:06:28;8.90;99.90
22925;DHT22;11628;51.072;3.712;2023-04-06T11:08:57;8.90;99.90
22925;DHT22;11628;51.072;3.712;2023-04-06T11:11:24;8.90;99.90
22925;DHT22;11628;51.072;3.712;2023-04-06T11:13:55;8.90;99.90
22925;DHT22;11628;51.072;3.712;2023-04-06T11:16:25;9.00;99.90
22925;DHT22;11628;51.072;3.712;2023-04-06T11:18:59;9.00;99.90
22925;DHT22;11628;51.072;3.712;2023-04-06T11:21:47;9.00;99.90
22925;DHT22;11628;51.072;3.712;2023-04-06T11:24:17;9.00;99.90
22925;DHT22;11628;51.072;3.712;2023-04-06T11:26:49;8.90;99.90
22925;DHT22;11628;51.072;3.712;2023-04-06T11:29:24;9.00;99.90
22925;DHT22;11628;51.072;3.712;2023-04-06T11:32:05;9.00;99.90
22925;DHT22;11628;51.072;3.712;2023-04-06T11:34:36;9.00;99.90
22925;DHT22;11628;51.072;3.712;2023-04-06T11:37:08;9.10;99.90
22925;DHT22;11628;51.072;3.712;2023-04-06T11:39:51;9.10;99.90
22925;DHT22;11628;51.072;3.712;2023-04-06T11:42:28;9.00;99.90
22925;DHT22;11628;51.072;3.712;2023-04-06T11:44:58;8.90;99.90
22925;DHT22;11628;51.072;3.712;2023-04-06T11:47:29;8.90;99.90
22925;DHT22;11628;51.072;3.712;2023-04-06T11:49:55;9.00;99.90
22925;DHT22;11628;51.072;3.712;2023-04-06T11:52:26;9.00;99.90
22925;DHT22;11628;51.072;3.712;2023-04-06T11:54:54;9.00;99.90
22925;DHT22;11628;51.072;3.712;2023-04-06T11:57:22;9.00;99.90
22925;DHT22;11628;51.072;3.712;2023-04-06T11:59:51;9.00;99.90
22925;DHT22;11628;51.072;3.712;2023-04-06T12:02:20;9.00;99.90
22925;DHT22;11628;51.072;3.712;2023-04-06T12:04:46;9.10;99.90
22925;DHT22;11628;51.072;3.712;2023-04-06T12:07:12;9.20;99.90
22925;DHT22;11628;51.072;3.712;2023-04-06T12:09:38;9.10;99.90
22925;DHT22;11628;51.072;3.712;2023-04-06T12:12:04;9.10;99.90
22925;DHT22;11628;51.072;3.712;2023-04-06T12:14:30;9.10;99.90
22925;DHT22;11628;51.072;3.712;2023-04-06T12:16:57;9.10;99.90
22925;DHT22;11628;51.072;3.712;2023-04-06T12:19:32;9.20;99.90
22925;DHT22;11628;51.072;3.712;2023-04-06T12:21:59;9.10;99.90
22925;DHT22;11628;51.072;3.712;2023-04-06T12:24:28;9.10;99.90
22925;DHT22;11628;51.072;3.712;2023-04-06T12:26:54;9.10;99.90
22925;DHT22;11628;51.072;3.712;2023-04-06T12:29:20;9.10;99.90
22925;DHT22;11628;51.072;3.712;2023-04-06T12:31:46;9.10;99.90
22925;DHT22;11628;51.072;3.712;2023-04-06T12:34:12;9.00;99.90
22925;DHT22;11628;51.072;3.712;2023-04-06T12:36:38;9.10;99.90
22925;DHT22;11628;51.072;3.712;2023-04-06T12:39:05;9.20;99.90
22925;DHT22;11628;51.072;3.712;2023-04-06T12:41:31;9.20;99.90
22925;DHT22;11628;51.072;3.712;2023-04-06T12:43:58;9.30;99.90
22925;DHT22;11628;51.072;3.712;2023-04-06T12:46:24;9.30;99.90
22925;DHT22;11628;51.072;3.712;2023-04-06T12:48:52;9.30;99.90
22925;DHT22;11628;51.072;3.712;2023-04-06T12:51:22;9.20;99.90
22925;DHT22;11628;51.072;3.712;2023-04-06T12:53:48;9.20;99.90
22925;DHT22;11628;51.072;3.712;2023-04-06T12:56:15;9.20;99.90
22925;DHT22;11628;51.072;3.712;2023-04-06T12:58:42;9.20;99.90
22925;DHT22;11628;51.072;3.712;2023-04-06T13:01:08;9.20;99.90
22925;DHT22;11628;51.072;3.712;2023-04-06T13:03:34;9.30;99.90
22925;DHT22;11628;51.072;3.712;2023-04-06T13:06:00;9.30;99.90
22925;DHT22;11628;51.072;3.712;2023-04-06T13:08:27;9.30;99.90
22925;DHT22;11628;51.072;3.712;2023-04-06T13:10:55;9.30;99.90
22925;DHT22;11628;51.072;3.712;2023-04-06T13:13:28;9.30;99.90
22925;DHT22;11628;51.072;3.712;2023-04-06T13:15:59;9.40;99.90
22925;DHT22;11628;51.072;3.712;2023-04-06T13:18:26;9.40;99.90
22925;DHT22;11628;51.072;3.712;2023-04-06T13:20:52;9.50;99.90
22925;DHT22;11628;51.072;3.712;2023-04-06T13:23:18;9.50;99.90
22925;DHT22;11628;51.072;3.712;2023-04-06T13:25:45;9.60;99.90
22925;DHT22;11628;51.072;3.712;2023-04-06T13:28:11;9.50;99.90
22925;DHT22;11628;51.072;3.712;2023-04-06T13:30:38;9.50;99.90
22925;DHT22;11628;51.072;3.712;2023-04-06T13:33:04;9.60;99.90
22925;DHT22;11628;51.072;3.712;2023-04-06T13:35:32;9.60;99.90
22925;DHT22;11628;51.072;3.712;2023-04-06T13:37:57;9.70;99.90
22925;DHT22;11628;51.072;3.712;2023-04-06T13:40:23;9.80;99.90
22925;DHT22;11628;51.072;3.712;2023-04-06T13:42:50;9.80;99.90
22925;DHT22;11628;51.072;3.712;2023-04-06T13:45:16;9.80;99.90
22925;DHT22;11628;51.072;3.712;2023-04-06T13:47:41;9.80;99.90
22925;DHT22;11628;51.072;3.712;2023-04-06T13:50:07;9.80;99.90
22925;DHT22;11628;51.072;3.712;2023-04-06T13:52:35;9.90;99.90
22925;DHT22;11628;51.072;3.712;2023-04-06T13:55:01;9.80;99.90
22925;DHT22;11628;51.072;3.712;2023-04-06T13:57:29;9.90;99.90
22925;DHT22;11628;51.072;3.712;2023-04-06T14:00:01;9.90;99.90
22925;DHT22;11628;51.072;3.712;2023-04-06T14:02:27;9.90;99.90
22925;DHT22;11628;51.072;3.712;2023-04-06T14:04:55;10.00;99.90
22925;DHT22;11628;51.072;3.712;2023-04-06T14:07:21;10.00;99.90
22925;DHT22;11628;51.072;3.712;2023-04-06T14:09:47;10.00;99.90
22925;DHT22;11628;51.072;3.712;2023-04-06T14:12:14;10.10;99.90
22925;DHT22;11628;51.072;3.712;2023-04-06T14:14:40;10.20;99.90
22925;DHT22;11628;51.072;3.712;2023-04-06T14:17:05;10.20;99.90
22925;DHT22;11628;51.072;3.712;2023-04-06T14:19:31;10.20;99.90
22925;DHT22;11628;51.072;3.712;2023-04-06T14:21:57;10.20;99.90
22925;DHT22;11628;51.072;3.712;2023-04-06T14:24:23;10.20;99.90
22925;DHT22;11628;51.072;3.712;2023-04-06T14:26:48;10.20;99.90
22925;DHT22;11628;51.072;3.712;2023-04-06T14:29:14;10.20;99.90
22925;DHT22;11628;51.072;3.712;2023-04-06T14:31:41;10.30;99.90
22925;DHT22;11628;51.072;3.712;2023-04-06T14:34:07;10.40;99.90
22925;DHT22;11628;51.072;3.712;2023-04-06T14:36:35;10.40;99.90
22925;DHT22;11628;51.072;3.712;2023-04-06T14:39:04;10.40;99.90
22925;DHT22;11628;51.072;3.712;2023-04-06T14:41:32;10.50;99.90
22925;DHT22;11628;51.072;3.712;2023-04-06T14:43:57;10.50;99.90
22925;DHT22;11628;51.072;3.712;2023-04-06T14:46:23;10.50;99.90
22925;DHT22;11628;51.072;3.712;2023-04-06T14:48:49;10.60;99.90
22925;DHT22;11628;51.072;3.712;2023-04-06T14:51:15;10.60;99.90
22925;DHT22;11628;51.072;3.712;2023-04-06T14:53:42;10.70;99.90
22925;DHT22;11628;51.072;3.712;2023-04-06T14:56:08;10.80;99.90
22925;DHT22;11628;51.072;3.712;2023-04-06T14:58:33;10.90;99.90
22925;DHT22;11628;51.072;3.712;2023-04-06T15:01:00;11.00;99.90
22925;DHT22;11628;51.072;3.712;2023-04-06T15:03:27;11.30;99.90
22925;DHT22;11628;51.072;3.712;2023-04-06T15:05:55;11.60;99.90
22925;DHT22;11628;51.072;3.712;2023-04-06T15:08:23;11.60;99.90
22925;DHT22;11628;51.072;3.712;2023-04-06T15:10:50;11.40;99.90
22925;DHT22;11628;51.072;3.712;2023-04-06T15:13:17;11.50;99.90
22925;DHT22;11628;51.072;3.712;2023-04-06T15:15:43;11.40;99.90
22925;DHT22;11628;51.072;3.712;2023-04-06T15:18:11;11.50;99.90
22925;DHT22;11628;51.072;3.712;2023-04-06T15:20:37;11.40;99.90
22925;DHT22;11628;51.072;3.712;2023-04-06T15:23:03;11.50;99.90
22925;DHT22;11628;51.072;3.712;2023-04-06T15:25:29;11.70;99.90
22925;DHT22;11628;51.072;3.712;2023-04-06T15:27:55;11.60;99.90
22925;DHT22;11628;51.072;3.712;2023-04-06T15:30:21;11.60;99.90
22925;DHT22;11628;51.072;3.712;2023-04-06T15:32:53;11.60;99.90
22925;DHT22;11628;51.072;3.712;2023-04-06T15:35:20;11.60;99.90
22925;DHT22;11628;51.072;3.712;2023-04-06T15:37:46;11.60;99.90
22925;DHT22;11628;51.072;3.712;2023-04-06T15:40:12;11.40;99.90
22925;DHT22;11628;51.072;3.712;2023-04-06T15:42:39;11.30;99.90